Thursday, June 21, 2018, 6:10 AM EDT
Back to Local

KPHL, Philadelphia International Airpt

Location: Philadelphia, PA, United States Lat: 39.867
Local Time: 6:10 AM EDT (10:10 GMT) Lon: -75.233
Time Zone: US/Eastern Elev: 19 ft

Show me the last for .
Show Decoded

2018-06-21 05:54 METAR KPHL 210954Z 07006KT 10SM BKN034 OVC045 21/19 A2974 RMK AO2 SLP071
                 T02110189 $ =
2018-06-21 04:54 METAR KPHL 210854Z 05005KT 10SM BKN035 OVC043 22/19 A2973 RMK AO2 SLP066
                 T02170189 56005 $ =
2018-06-21 03:54 METAR KPHL 210754Z 00000KT 8SM BKN034 BKN046 OVC070 23/21 A2973 RMK AO2 SLP066
                 T02280211 $ =
2018-06-21 02:54 METAR KPHL 210654Z 33005KT 7SM FEW033 BKN049 OVC100 22/21 A2973 RMK AO2 SLP068
                 T02220211 $ =
2018-06-21 01:54 METAR KPHL 210554Z 00000KT 8SM FEW020 BKN037 OVC055 22/21 A2974 RMK AO2 SLP071
                 60029 T02220211 10267 20217 58013 $ =
2018-06-21 01:18 METAR KPHL 210518Z 18005KT 8SM FEW020 BKN037 OVC055 22/22 A2976 RMK AO2
                 T02220217 $ =
2018-06-21 00:54 METAR KPHL 210454Z 00000KT 10SM BKN038 OVC055 22/21 A2976 RMK AO2 RAE33 SLP076
                 P0016 T02220211 403000206 $ =
2018-06-21 00:33 METAR KPHL 210433Z 00000KT 10SM BKN038 OVC055 22/21 A2976 RMK AO2 RAE33 P0016
                 T02170211 $ =
2018-06-21 00:22 METAR KPHL 210422Z 34004KT 7SM -RA BKN039 OVC070 22/22 A2977 RMK AO2 P0016
                 T02220217 $ =
2018-06-21 00:16 METAR KPHL 210416Z 25004KT 5SM RA BR BKN036 OVC055 22/22 A2977 RMK AO2 P0015
                 T02220217 $ =
2018-06-20 23:54 METAR KPHL 210354Z 24008KT 2SM +RA BR BKN030 BKN044 OVC055 23/22 A2978 RMK AO2
                 RAB12 SLP084 P0013 T02280217 $ =
2018-06-20 23:49 METAR KPHL 210349Z 22009KT 2SM R09R/6000VP6000FT +RA BR BKN030 BKN044 OVC055
                 23/21 A2978 RMK AO2 RAB12 P0003 $ =
2018-06-20 23:45 METAR KPHL 210345Z 23013KT 3SM R09R/6000VP6000FT +RA BR OVC030 24/21 A2978 RMK
                 AO2 RAB12 P0002 T02390211 $ =
2018-06-20 23:29 METAR KPHL 210329Z 22005KT 5SM -RA OVC045 24/21 A2978 RMK AO2 RAB12 P0001
                 T02390211 $ =
2018-06-20 23:18 METAR KPHL 210318Z 22006KT 8SM -RA OVC046 24/20 A2978 RMK AO2 RAB12 P0001
                 T02440200 $ =
2018-06-20 23:12 METAR KPHL 210312Z 20005G15KT 6SM RA OVC046 24/19 A2978 RMK AO2 RAB12 CB DSNT S
                 AND W MOV NE P0000 T02440194 $ =
2018-06-20 22:54 METAR KPHL 210254Z 18003KT 10SM BKN047 OVC065 24/19 A2978 RMK AO2 SLP083
                 T02440194 55000 $ =
2018-06-20 21:54 METAR KPHL 210154Z 19007KT 10SM BKN049 OVC080 25/19 A2977 RMK AO2 SLP080
                 T02500189 $ =
2018-06-20 20:54 METAR KPHL 210054Z 19006KT 10SM BKN050 OVC075 26/19 A2977 RMK AO2 SLP079
                 T02560194 $ =
2018-06-20 19:54 METAR KPHL 202354Z 19008KT 10SM BKN060 OVC160 27/19 A2978 RMK AO2 SLP084
                 T02670194 10294 20267 53002 $ =
2018-06-20 18:54 METAR KPHL 202254Z 20007KT 10SM BKN060 BKN090 OVC250 28/19 A2977 RMK AO2 SLP079
                 T02780194 $ =
2018-06-20 17:54 METAR KPHL 202154Z 25010KT 10SM BKN050 BKN100 OVC250 29/17 A2977 RMK AO2 SLP081
                 T02940172 $ =
2018-06-20 16:54 METAR KPHL 202054Z 22008KT 10SM SCT065 BKN100 BKN250 29/17 A2978 RMK AO2 SLP082
                 T02940172 58014 $ =
2018-06-20 15:54 METAR KPHL 201954Z 23008KT 10SM SCT040 BKN100 OVC210 29/19 A2979 RMK AO2 SLP088
                 T02890194 $ =
2018-06-20 14:54 METAR KPHL 201854Z 18011G17KT 10SM SCT040 SCT080 BKN210 28/20 A2981 RMK AO2
                 SLP094 T02830200 $ =
2018-06-20 13:54 METAR KPHL 201754Z 23007KT 10SM SCT050 BKN100 BKN250 29/17 A2982 RMK AO2 SLP096
                 T02940172 10300 20233 58020 $ =
2018-06-20 12:54 METAR KPHL 201654Z 23008KT 10SM SCT044 BKN100 29/17 A2984 RMK AO2 SLP104
                 T02940172 $ =
2018-06-20 11:54 METAR KPHL 201554Z 00000KT 10SM SCT038 SCT100 28/18 A2986 RMK AO2 SLP110
                 T02830178 $ =
2018-06-20 10:54 METAR KPHL 201454Z 00000KT 10SM FEW038 FEW100 SCT160 27/18 A2987 RMK AO2 SLP115
                 T02720178 58007 $ =
2018-06-20 09:54 METAR KPHL 201354Z 08003KT 10SM FEW035 FEW160 26/16 A2988 RMK AO2 SLP118
                 T02610156 $ =
2018-06-20 08:54 METAR KPHL 201254Z 10006KT 10SM SCT160 24/16 A2989 RMK AO2 SLP121 T02390161 $ =
2018-06-20 07:54 METAR KPHL 201154Z VRB06KT 10SM SCT160 23/15 A2989 RMK AO2 SLP122 T02330150
                 10233 20206 51009 $ =
2018-06-20 06:54 METAR KPHL 201054Z VRB05KT 10SM FEW100 BKN160 22/14 A2989 RMK AO2 SLP120
                 T02170139 $ =

Support USWX by starting your Amazon purchase here.